Flight Track Log - Related Links

Times and Time Zones

All times are in EDT time to prevent confusion due to time zone crossing. See the SWA2871 flight status page for this flight to view local times or setup timezone preferences in your user account.

Time Position Orientation Groundspeed Altitude Reporting Facility
EDT Latitude Longitude Course Direction KTS MPH feet Rate Location/Type
Wed 11:20:49 AM 30.4406 -81.7072 222° Southwest 223 257 2,800  Level Jacksonville Center
Wed 11:21:52 AM 30.4331 -81.7867 264° West 297 342 5,200 2,927 Climbing Jacksonville Center
Wed 11:22:52 AM 30.4275 -81.8758 266° West 302 348 8,800 2,950 Climbing Jacksonville Center
Wed 11:23:52 AM 30.4219 -81.9722 266° West 297 342 11,100 2,500 Climbing Jacksonville Center
Wed 11:24:52 AM 30.4142 -82.0856 265° West 323 372 13,800 2,800 Climbing Jacksonville Center
Wed 11:25:52 AM 30.4067 -82.2206 266° West 387 445 16,700 2,750 Climbing Jacksonville Center
Wed 11:26:52 AM 30.4011 -82.3361 267° West 405 466 19,300 2,350 Climbing Jacksonville Center
Wed 11:27:52 AM 30.4350 -82.4564 288° West 394 453 21,400 2,050 Climbing Jacksonville Center
Wed 11:28:52 AM 30.4875 -82.5767 297° West 402 463 23,400 1,300 Climbing Jacksonville Center
Wed 11:29:52 AM 30.5483 -82.7117 298° West 411 473 24,000 950 Climbing Jacksonville Center
Wed 11:30:52 AM 30.5900 -82.8297 292° West 430 495 25,300 1,650 Climbing Jacksonville Center
Wed 11:31:52 AM 30.6047 -82.9819 276° West 430 495 27,300 1,750 Climbing Jacksonville Center
Wed 11:32:52 AM 30.6003 -83.1242 268° West 435 501 28,800 1,700 Climbing Jacksonville Center
Wed 11:33:52 AM 30.5939 -83.2714 267° West 442 509 30,700 2,000 Climbing Jacksonville Center
Wed 11:34:52 AM 30.6142 -83.4067 280° West 448 516 32,800 1,950 Climbing Jacksonville Center
Wed 11:35:52 AM 30.6553 -83.5372 290° West 428 493 34,600 1,450 Climbing Jacksonville Center
Wed 11:36:52 AM 30.6861 -83.6511 288° West 428 493 35,700 1,200 Climbing Jacksonville Center
Wed 11:37:52 AM 30.7228 -83.7842 288° West 428 493 37,000 1,150 Climbing Jacksonville Center
Wed 11:38:52 AM 30.7594 -83.9153 288° West 423 487 38,000 500 Climbing Jacksonville Center
Wed 11:39:52 AM 30.7958 -84.0389 289° West 423 487 38,000  Level Jacksonville Center
Wed 11:40:52 AM 30.8322 -84.1675 288° West 423 487 38,000  Level Jacksonville Center
Wed 11:41:52 AM 30.8725 -84.3083 288° West 423 487 38,000  Level Jacksonville Center
Wed 11:42:52 AM 30.9106 -84.4375 289° West 423 487 38,000  Level Jacksonville Center
Wed 11:43:52 AM 30.9444 -84.5664 287° West 423 487 38,000  Level Jacksonville Center
Wed 11:44:52 AM 30.9825 -84.6931 289° West 423 487 38,000  Level Jacksonville Center
Wed 11:45:52 AM 31.0103 -84.7978 287° West 423 487 38,000  Level Jacksonville Center
Wed 11:46:52 AM 31.0519 -84.9392 289° West 423 487 38,000  Level Jacksonville Center
Wed 11:47:52 AM 31.0931 -85.0881 288° West 429 494 38,000  Level Jacksonville Center
Wed 11:48:52 AM 31.1244 -85.2028 288° West 429 494 38,000  Level Jacksonville Center
Wed 11:49:52 AM 31.1597 -85.3275 288° West 423 487 38,000  Level Jacksonville Center
Wed 11:50:52 AM 31.1931 -85.4475 288° West 411 473 38,000  Level Jacksonville Center
Wed 11:51:52 AM 31.2258 -85.5747 287° West 406 467 38,000  Level Jacksonville Center
Wed 11:52:52 AM 31.2606 -85.6997 288° West 406 467 38,000  Level Jacksonville Center
Wed 11:53:52 AM 31.2892 -85.8292 285° West 401 461 38,000  Level Jacksonville Center
Wed 11:54:52 AM 31.3258 -85.9569 289° West 406 467 38,000  Level Jacksonville Center
Wed 11:55:52 AM 31.3619 -86.0919 287° West 417 480 38,000  Level Jacksonville Center
Wed 11:57:40 AM 31.4269 -86.3311 288° West 426 490 38,000  Level Atlanta Center
Wed 11:58:40 AM 31.4639 -86.4686 288° West 431 496 38,000  Level Atlanta Center
Wed 11:59:40 AM 31.4989 -86.6058 287° West 438 504 38,000  Level Atlanta Center
Wed 12:00:40 PM 31.5356 -86.7408 288° West 444 511 38,000  Level Atlanta Center
Wed 12:01:40 PM 31.5700 -86.8808 286° West 444 511 38,000  Level Atlanta Center
Wed 12:02:40 PM 31.6164 -87.0333 290° West 444 511 38,000  Level Atlanta Center
Wed 12:03:40 PM 31.6506 -87.1686 287° West 444 511 38,000  Level Atlanta Center
Wed 12:05:57 PM 31.7261 -87.4658 287° West 438 504 38,000  Level Memphis Center
Wed 12:06:57 PM 31.7603 -87.5992 287° West 433 498 38,000  Level Memphis Center
Wed 12:07:57 PM 31.7903 -87.7325 285° West 433 498 38,000  Level Memphis Center
Wed 12:08:57 PM 31.8264 -87.8636 288° West 428 493 38,000  Level Memphis Center
Wed 12:09:57 PM 31.8583 -87.9997 285° West 428 493 38,000  Level Memphis Center
Wed 12:10:57 PM 31.8922 -88.1333 287° West 433 498 38,000  Level Memphis Center
Wed 12:11:57 PM 31.9236 -88.2672 285° West 433 498 38,000  Level Memphis Center
Wed 12:12:57 PM 31.9617 -88.4156 287° West 433 498 38,000  Level Memphis Center
Wed 12:13:57 PM 31.9928 -88.5547 285° West 433 498 38,000  Level Memphis Center
Wed 12:14:57 PM 32.0261 -88.6911 286° West 433 498 38,000  Level Memphis Center
Wed 12:15:57 PM 32.0592 -88.8278 286° West 433 498 38,000  Level Memphis Center
Wed 12:16:57 PM 32.0961 -88.9619 288° West 433 498 38,000  Level Memphis Center
Wed 12:17:57 PM 32.1269 -89.1014 285° West 433 498 38,000  Level Memphis Center
Wed 12:18:57 PM 32.1597 -89.2433 285° West 433 498 38,000  Level Memphis Center
Wed 12:19:57 PM 32.1919 -89.3828 285° West 433 498 38,000  Level Memphis Center
Wed 12:20:57 PM 32.2244 -89.5247 285° West 438 504 38,000  Level Memphis Center
Wed 12:21:57 PM 32.2586 -89.6694 286° West 444 511 38,000  Level Memphis Center
Wed 12:22:57 PM 32.2908 -89.8117 285° West 449 517 38,000  Level Memphis Center
Wed 12:23:57 PM 32.3247 -89.9592 285° West 454 522 38,000  Level Memphis Center
Wed 12:24:57 PM 32.3586 -90.1017 286° West 454 522 38,000  Level Memphis Center
Wed 12:25:57 PM 32.3922 -90.2467 285° West 454 522 38,000  Level Memphis Center
Wed 12:26:57 PM 32.4236 -90.3892 285° West 454 522 38,000  Level Memphis Center
Wed 12:27:57 PM 32.4567 -90.5322 285° West 454 522 38,000  Level Memphis Center
Wed 12:28:57 PM 32.4878 -90.6725 285° West 454 522 38,000  Level Memphis Center
Wed 12:29:57 PM 32.5186 -90.8106 285° West 449 517 38,000  Level Memphis Center
Wed 12:30:57 PM 32.5494 -90.9511 285° West 449 517 38,000  Level Memphis Center
Wed 12:32:43 PM 32.6039 -91.1825 286° West 445 512 38,000  Level Fort Worth Center
Wed 12:33:42 PM 32.6361 -91.3281 285° West 445 512 38,000  Level Fort Worth Center
Wed 12:34:42 PM 32.6658 -91.4717 284° West 456 525 38,000  Level Fort Worth Center
Wed 12:35:43 PM 32.6975 -91.6150 285° West 456 525 38,000  Level Fort Worth Center
Wed 12:36:42 PM 32.7272 -91.7589 284° West 456 525 38,000  Level Fort Worth Center
Wed 12:37:42 PM 32.7628 -91.9022 286° West 451 519 38,000  Level Fort Worth Center
Wed 12:38:43 PM 32.7939 -92.0461 284° West 451 519 38,000  Level Fort Worth Center
Wed 12:39:42 PM 32.8231 -92.1928 283° West 451 519 38,000  Level Fort Worth Center
Wed 12:40:42 PM 32.8542 -92.3367 284° West 451 519 38,000  Level Fort Worth Center
Wed 12:41:43 PM 32.8831 -92.4861 283° West 456 525 38,000  Level Fort Worth Center
Wed 12:42:42 PM 32.9156 -92.6303 285° West 456 525 38,000  Level Fort Worth Center
Wed 12:43:42 PM 32.9419 -92.7772 282° West 456 525 38,000  Level Fort Worth Center
Wed 12:44:42 PM 32.9744 -92.9242 285° West 456 525 38,000  Level Fort Worth Center
Wed 12:45:42 PM 33.0025 -93.0664 283° West 456 525 38,000  Level Fort Worth Center
Wed 12:46:42 PM 33.0325 -93.2111 284° West 456 525 38,000  Level Fort Worth Center
Wed 12:47:43 PM 33.0603 -93.3561 283° West 451 519 38,000  Level Fort Worth Center
Wed 12:48:42 PM 33.0878 -93.5011 283° West 451 519 38,000  Level Fort Worth Center
Wed 12:49:42 PM 33.1150 -93.6436 283° West 451 519 38,000  Level Fort Worth Center
Wed 12:50:42 PM 33.1425 -93.7914 283° West 451 519 38,000  Level Fort Worth Center
Wed 12:51:42 PM 33.1719 -93.9514 282° West 451 519 38,000  Level Fort Worth Center
Wed 12:52:42 PM 33.2008 -94.0967 283° West 451 519 38,000  Level Fort Worth Center
Wed 12:53:42 PM 33.2297 -94.2397 284° West 451 519 38,000  Level Fort Worth Center
Wed 12:54:42 PM 33.2581 -94.3803 284° West 451 519 38,000  Level Fort Worth Center
Wed 12:55:42 PM 33.2844 -94.5211 283° West 451 519 38,000  Level Fort Worth Center
Wed 12:56:42 PM 33.3106 -94.6594 283° West 446 513 38,000  Level Fort Worth Center
Wed 12:57:42 PM 33.3386 -94.7978 284° West 441 507 38,000  Level Fort Worth Center
Wed 12:58:42 PM 33.3642 -94.9336 283° West 429 494 38,000  Level Fort Worth Center
Wed 12:59:42 PM 33.3878 -95.0700 282° West 429 494 38,000  Level Fort Worth Center
Wed 01:00:42 PM 33.4153 -95.2086 283° West 429 494 38,000  Level Fort Worth Center
Wed 01:01:42 PM 33.4386 -95.3475 281° West 429 494 38,000  Level Fort Worth Center
Wed 01:02:42 PM 33.4617 -95.4864 281° West 429 494 38,000  Level Fort Worth Center
Wed 01:03:42 PM 33.4886 -95.6128 284° West 429 494 38,000 700 Level Fort Worth Center
Wed 01:04:42 PM 33.5156 -95.7692 282° West 434 499 39,400 1,000 Climbing Fort Worth Center
Wed 01:05:42 PM 33.5381 -95.8933 282° West 429 494 40,000 300 Climbing Fort Worth Center
Wed 01:06:42 PM 33.5669 -96.0497 283° West 434 499 40,000  Level Fort Worth Center
Wed 01:07:42 PM 33.5892 -96.1767 282° West 434 499 40,000  Level Fort Worth Center
Wed 01:08:42 PM 33.6178 -96.3383 282° West 439 505 40,000  Level Fort Worth Center
Wed 01:09:42 PM 33.6397 -96.4653 282° West 439 505 40,000  Level Fort Worth Center
Wed 01:10:42 PM 33.6636 -96.6097 281° West 445 512 40,000  Level Fort Worth Center
Wed 01:11:42 PM 33.6939 -96.7719 283° West 445 512 40,000  Level Fort Worth Center
Wed 01:12:42 PM 33.7153 -96.8992 281° West 445 512 40,000  Level Fort Worth Center
Wed 01:13:42 PM 33.7408 -97.0564 281° West 445 512 40,000  Level Fort Worth Center
Wed 01:14:42 PM 33.7600 -97.2011 279° West 445 512 40,000  Level Fort Worth Center
Wed 01:15:42 PM 33.7853 -97.3436 282° West 445 512 40,000  Level Fort Worth Center
Wed 01:16:42 PM 33.8081 -97.4908 281° West 445 512 40,000  Level Fort Worth Center
Wed 01:17:42 PM 33.8331 -97.6386 282° West 450 518 40,000  Level Fort Worth Center
Wed 01:18:42 PM 33.8556 -97.7836 281° West 450 518 40,000  Level Fort Worth Center
Wed 01:19:42 PM 33.8800 -97.9339 281° West 450 518 40,000  Level Fort Worth Center
Wed 01:20:42 PM 33.9044 -98.0817 281° West 450 518 40,000  Level Fort Worth Center
Wed 01:21:43 PM 33.9267 -98.2219 281° West 442 509 40,000  Level Fort Worth Center
Wed 01:22:42 PM 33.9506 -98.3600 282° West 429 494 40,000  Level Fort Worth Center
Wed 01:23:42 PM 33.9789 -98.4781 286° West 424 488 40,000  Level Fort Worth Center
Wed 01:24:42 PM 34.0006 -98.6186 281° West 419 482 40,000  Level Fort Worth Center
Wed 01:25:42 PM 34.0200 -98.7642 279° West 431 496 40,000  Level Fort Worth Center
Wed 01:26:42 PM 34.0369 -98.9097 278° West 431 496 40,000  Level Fort Worth Center
Wed 01:27:42 PM 34.0603 -99.0581 281° West 444 511 40,000  Level Fort Worth Center
Wed 01:28:42 PM 34.0792 -99.2014 279° West 451 519 40,000  Level Fort Worth Center
Wed 01:29:42 PM 34.0978 -99.3447 279° West 444 511 40,000  Level Fort Worth Center
Wed 01:30:42 PM 34.1164 -99.4931 279° West 444 511 40,000  Level Fort Worth Center
Wed 01:31:42 PM 34.1347 -99.6367 279° West 444 511 40,000  Level Fort Worth Center
Wed 01:32:42 PM 34.1531 -99.7778 279° West 439 505 40,000  Level Fort Worth Center
Wed 01:33:42 PM 34.1711 -99.9236 279° West 439 505 40,000  Level Fort Worth Center
Wed 01:34:42 PM 34.1889 -100.0672 279° West 439 505 40,000  Level Fort Worth Center
Wed 01:35:42 PM 34.2067 -100.2086 279° West 439 505 40,000  Level Fort Worth Center
Wed 01:36:42 PM 34.2242 -100.3522 278° West 434 499 40,000  Level Fort Worth Center
Wed 01:37:42 PM 34.2456 -100.5114 279° West 434 499 40,000  Level Fort Worth Center
Wed 01:38:42 PM 34.2628 -100.6525 278° West 429 494 40,000  Level Fort Worth Center
Wed 01:39:42 PM 34.2800 -100.7939 278° West 429 494 40,000  Level Fort Worth Center
Wed 01:40:42 PM 34.2947 -100.9378 277° West 429 494 40,000  Level Fort Worth Center
Wed 01:41:42 PM 34.3081 -101.0514 278° West 429 494 40,000  Level Fort Worth Center
Wed 01:42:42 PM 34.3261 -101.2208 277° West 429 494 40,000  Level Fort Worth Center
Wed 01:43:42 PM 34.3361 -101.3644 275° West 429 494 40,000  Level Fort Worth Center
Wed 01:44:42 PM 34.3525 -101.5086 278° West 428 493 40,000  Level Fort Worth Center
Wed 01:45:42 PM 34.3667 -101.6450 277° West 428 493 40,000  Level Fort Worth Center
Wed 01:46:42 PM 34.3831 -101.7794 278° West 418 481 40,000  Level Fort Worth Center
Wed 01:47:58 PM 34.4003 -101.9394 277° West 399 459 40,000  Level Albuquerque Center
Wed 01:49:00 PM 34.4139 -102.0717 277° West 396 456 40,000  Level Albuquerque Center
Wed 01:50:02 PM 34.4292 -102.2086 278° West 402 463 40,000  Level Albuquerque Center
Wed 01:51:04 PM 34.4442 -102.3481 277° West 412 474 40,000  Level Albuquerque Center
Wed 01:52:06 PM 34.4592 -102.4861 278° West 414 476 40,000  Level Albuquerque Center
Wed 01:53:08 PM 34.4764 -102.6536 277° West 415 478 40,000  Level Albuquerque Center
Wed 01:54:10 PM 34.4903 -102.7931 277° West 417 480 40,000  Level Albuquerque Center
Wed 01:55:12 PM 34.5094 -102.9353 279° West 415 478 40,000  Level Albuquerque Center
Wed 01:56:15 PM 34.5314 -103.0728 281° West 414 476 40,000  Level Albuquerque Center
Wed 01:57:16 PM 34.5514 -103.2089 280° West 408 470 40,000  Level Albuquerque Center
Wed 01:58:18 PM 34.5728 -103.3456 281° West 408 470 40,000  Level Albuquerque Center
Wed 01:59:20 PM 34.5931 -103.4797 280° West 403 464 40,000  Level Albuquerque Center
Wed 02:00:22 PM 34.6133 -103.6142 280° West 401 461 40,000  Level Albuquerque Center
Wed 02:01:24 PM 34.6367 -103.7722 280° West 404 465 40,000  Level Albuquerque Center
Wed 02:02:26 PM 34.6558 -103.9081 280° West 403 464 40,000  Level Albuquerque Center
Wed 02:03:28 PM 34.6756 -104.0436 280° West 402 463 40,000  Level Albuquerque Center
Wed 02:04:30 PM 34.6956 -104.1797 280° West 403 464 40,000  Level Albuquerque Center
Wed 02:05:32 PM 34.7142 -104.3156 280° West 402 463 40,000  Level Albuquerque Center
Wed 02:06:34 PM 34.7333 -104.4514 280° West 402 463 40,000  Level Albuquerque Center
Wed 02:07:35 PM 34.7525 -104.5856 280° West 399 459 40,000  Level Albuquerque Center
Wed 02:08:37 PM 34.7717 -104.7214 280° West 401 461 40,000  Level Albuquerque Center
Wed 02:09:39 PM 34.7914 -104.8572 280° West 402 463 40,000  Level Albuquerque Center
Wed 02:10:41 PM 34.8100 -104.9956 279° West 408 470 40,000  Level Albuquerque Center
Wed 02:11:43 PM 34.8303 -105.1561 279° West 407 468 40,000 -97 Level Albuquerque Center
Wed 02:12:45 PM 34.8483 -105.2928 279° West 406 467 39,800 -585 Descending Albuquerque Center
Wed 02:13:46 PM 34.8664 -105.4272 279° West 401 461 38,800 -878 Descending Albuquerque Center
Wed 02:14:48 PM 34.8831 -105.5606 279° West 396 456 38,000 -387 Descending Albuquerque Center
Wed 02:15:50 PM 34.8994 -105.6894 279° West 387 445 38,000  Level Albuquerque Center
Wed 02:16:52 PM 34.9172 -105.8208 279° West 388 447 38,000  Level Albuquerque Center
Wed 02:17:54 PM 34.9308 -105.9386 278° West 392 451 38,000  Level Albuquerque Center
Wed 02:18:56 PM 34.9494 -106.0983 278° West 395 455 38,000  Level Albuquerque Center
Wed 02:19:57 PM 34.9653 -106.2306 278° West 396 456 38,000  Level Albuquerque Center
Wed 02:20:59 PM 34.9811 -106.3628 278° West 394 453 38,000  Level Albuquerque Center
Wed 02:22:01 PM 34.9967 -106.4953 278° West 395 455 38,000  Level Albuquerque Center
Wed 02:23:03 PM 35.0136 -106.6503 278° West 407 468 38,000  Level Albuquerque Center
Wed 02:24:05 PM 35.0281 -106.7764 278° West 398 458 38,000  Level Albuquerque Center
Wed 02:25:06 PM 35.0472 -106.9181 279° West 383 441 38,000  Level Albuquerque Center
Wed 02:26:08 PM 35.0614 -107.0433 278° West 386 444 38,000  Level Albuquerque Center
Wed 02:27:10 PM 35.0781 -107.1861 278° West 383 441 38,000  Level Albuquerque Center
Wed 02:28:12 PM 35.0881 -107.2936 277° West 388 447 38,000  Level Albuquerque Center
Wed 02:29:13 PM 35.1056 -107.4489 278° West 386 444 38,000  Level Albuquerque Center
Wed 02:30:15 PM 35.1206 -107.5794 278° West 383 441 38,000  Level Albuquerque Center
Wed 02:31:17 PM 35.1353 -107.7061 278° West 389 448 38,000  Level Albuquerque Center
Wed 02:32:19 PM 35.1508 -107.8550 277° West 392 451 38,000  Level Albuquerque Center
Wed 02:33:21 PM 35.1636 -107.9825 277° West 394 453 38,000  Level Albuquerque Center
Wed 02:34:22 PM 35.1814 -108.1306 278° West 394 453 38,000  Level Albuquerque Center
Wed 02:35:24 PM 35.1928 -108.2606 276° West 397 457 38,000  Level Albuquerque Center
Wed 02:36:26 PM 35.2078 -108.3889 278° West 397 457 38,000  Level Albuquerque Center
Wed 02:37:28 PM 35.2228 -108.5400 277° West 399 459 38,000  Level Albuquerque Center
Wed 02:38:30 PM 35.2367 -108.6694 278° West 399 459 38,000  Level Albuquerque Center
Wed 02:39:31 PM 35.2508 -108.8239 276° West 404 465 38,000  Level Albuquerque Center
Wed 02:40:33 PM 35.2644 -108.9550 277° West 405 466 38,000  Level Albuquerque Center
Wed 02:41:35 PM 35.2792 -109.1067 277° West 403 464 38,000  Level Albuquerque Center
Wed 02:42:37 PM 35.2917 -109.2392 277° West 404 465 38,000  Level Albuquerque Center
Wed 02:43:38 PM 35.3047 -109.3708 277° West 405 466 38,000  Level Albuquerque Center
Wed 02:44:40 PM 35.3181 -109.5228 276° West 403 464 38,000  Level Albuquerque Center
Wed 02:45:42 PM 35.3308 -109.6531 277° West 400 460 38,000  Level Albuquerque Center
Wed 02:46:44 PM 35.3442 -109.8056 276° West 404 465 38,000  Level Albuquerque Center
Wed 02:47:45 PM 35.3556 -109.9336 276° West 401 461 38,000  Level Albuquerque Center
Wed 02:48:47 PM 35.3650 -110.0658 275° West 405 466 38,000  Level Albuquerque Center
Wed 02:49:49 PM 35.3792 -110.2164 277° West 400 460 38,000  Level Albuquerque Center
Wed 02:50:51 PM 35.3889 -110.3431 275° West 394 453 38,000  Level Albuquerque Center
Wed 02:51:52 PM 35.4000 -110.4906 275° West 391 450 38,000  Level Albuquerque Center
Wed 02:52:54 PM 35.4111 -110.6189 276° West 393 452 38,000  Level Albuquerque Center
Wed 02:54:28 PM 35.4300 -110.8239 277° West 396 456 38,000  Level Los Angeles Center
Wed 02:54:58 PM 35.4350 -110.8989 275° West 399 459 38,000  Level Albuquerque Center
Wed 02:56:00 PM 35.4481 -111.0497 276° West 399 459 38,000  Level Albuquerque Center
Wed 02:57:01 PM 35.4594 -111.1806 276° West 401 461 38,000 -390 Level Albuquerque Center
Wed 02:58:03 PM 35.4694 -111.3108 275° West 401 461 37,200 -1,747 Descending Albuquerque Center
Wed 02:59:39 PM 35.4867 -111.5300 276° West 403 464 33,400 -2,544 Descending Los Angeles Center
Wed 03:00:08 PM 35.4917 -111.5917 276° West 404 465 31,900 -2,242 Descending Albuquerque Center
Wed 03:01:10 PM 35.5014 -111.7269 275° West 403 464 30,000 -919 Descending Albuquerque Center
Wed 03:02:12 PM 35.5133 -111.8839 275° West 391 450 30,000  Level Albuquerque Center
Wed 03:03:14 PM 35.5228 -112.0139 275° West 386 444 30,000  Level Albuquerque Center
Wed 03:04:15 PM 35.5325 -112.1458 275° West 388 447 30,000  Level Albuquerque Center
Wed 03:05:17 PM 35.5417 -112.2775 275° West 389 448 30,000  Level Albuquerque Center
Wed 03:06:19 PM 35.5514 -112.4239 275° West 387 445 30,000  Level Albuquerque Center
Wed 03:06:53 PM 35.5558 -112.4828 275° West 387 445 30,000  Level Los Angeles Center
Wed 03:07:55 PM 35.5669 -112.6406 275° West 388 447 30,000 -145 Level Los Angeles Center
Wed 03:08:57 PM 35.5758 -112.7739 275° West 390 449 29,700 -677 Descending Los Angeles Center
Wed 03:09:59 PM 35.5844 -112.9042 275° West 386 444 28,600 -1,016 Descending Los Angeles Center
Wed 03:11:01 PM 35.5925 -113.0272 275° West 377 434 27,600 -968 Descending Los Angeles Center
Wed 03:12:03 PM 35.6011 -113.1525 275° West 372 428 26,600 -1,065 Descending Los Angeles Center
Wed 03:13:05 PM 35.6100 -113.3039 274° West 370 426 25,400 -1,065 Descending Los Angeles Center
Wed 03:14:07 PM 35.6175 -113.4244 274° West 360 414 24,400 -677 Descending Los Angeles Center
Wed 03:15:09 PM 35.6242 -113.5450 274° West 355 409 24,000 -435 Descending Los Angeles Center
Wed 03:16:11 PM 35.6411 -113.6644 280° West 355 409 23,500 -1,161 Descending Los Angeles Center
Wed 03:17:13 PM 35.6578 -113.7758 280° West 340 391 21,600 -1,839 Descending Los Angeles Center
Wed 03:18:15 PM 35.6733 -113.8856 280° West 330 380 19,700 -1,728 Descending Los Angeles Center
Wed 03:19:18 PM 35.6872 -113.9936 279° West 324 373 18,000 -1,790 Descending Los Angeles Center
Wed 03:20:19 PM 35.7050 -114.1175 280° West 312 359 16,000 -1,839 Descending Los Angeles Center
Wed 03:21:22 PM 35.7203 -114.2222 280° West 309 356 14,200 -1,818 Descending Los Angeles Center
Wed 03:21:58 PM 35.7322 -114.2894 282° West 316 364 13,000 -1,742 Descending Los Angeles Center
Wed 03:22:24 PM 35.7339 -114.3278 273° West 311 358 12,400 -984 Descending Los Angeles Center
Wed 03:22:59 PM 35.7564 -114.3872 295° West 304 350 12,000 -387 Descending Los Angeles Center
Wed 03:23:26 PM 35.7817 -114.4006 337° Northwest 308 354 12,000  Level Los Angeles Center
Wed 03:24:12 PM 35.8464 -114.4311 339° North 286 329 12,000  Level Los Angeles Center
Wed 03:24:28 PM 35.8556 -114.4356 339° North 291 335 12,000  Level Los Angeles Center
Wed 03:25:07 PM 35.9142 -114.4642 338° Northwest 283 326 12,000 -484 Level Los Angeles Center
Wed 03:25:30 PM 35.9403 -114.4753 341° North 277 319 11,500 -984 Descending Los Angeles Center
Wed 03:26:08 PM 35.9817 -114.4944 339° North 245 282 11,000 -871 Descending Los Angeles Center
Wed 03:26:32 PM 36.0014 -114.5042 338° Northwest 252 290 10,600 -1,180 Descending Los Angeles Center
Wed 03:27:09 PM 36.0364 -114.5267 333° Northwest 231 266 9,800 -1,161 Descending Los Angeles Center
Wed 03:27:34 PM 36.0444 -114.5542 290° West 237 273 9,400 -1,300 Descending Los Angeles Center
Wed 03:28:09 PM 36.0528 -114.6089 281° West 241 277 8,500 -1,161 Descending Los Angeles Center
Wed 03:28:36 PM 36.0583 -114.6347 285° West 240 276 8,200 -448 Descending Los Angeles Center
Wed 03:29:16 PM 36.0678 -114.6972 281° West 243 280 8,000 -194 Descending Los Angeles Center
Wed 03:29:38 PM 36.0722 -114.7161 286° West 242 278 8,000 -327 Level Los Angeles Center
Wed 03:30:11 PM 36.0731 -114.7700 271° West 237 273 7,700 -571 Descending Los Angeles Center
Wed 03:30:41 PM 36.0775 -114.7972 281° West 240 276 7,400 -896 Descending Los Angeles Center
Wed 03:31:18 PM 36.0736 -114.8603 266° West 240 276 6,700 -1,452 Descending Los Angeles Center
Wed 03:31:43 PM 36.0750 -114.8975 273° West 240 276 5,900 -1,701 Descending Los Angeles Center
Wed 03:32:25 PM 36.0731 -114.9564 268° West 238 274 4,800 -1,452 Descending Los Angeles Center
Wed 03:32:45 PM 36.0739 -114.9797 273° West 240 276 4,400 -1,091 Descending Los Angeles Center
Wed 03:33:20 PM 36.0739 -115.0200 270° West 197 227 3,800 -968 Descending Los Angeles Center
Wed 03:33:47 PM 36.0742 -115.0444 271° West 216 249 3,400 -896 Descending Los Angeles Center
Wed 03:34:27 PM 36.0725 -115.0817 267° West 163 188 2,800 -871 Descending Los Angeles Center
Wed 03:34:49 PM 36.0739 -115.0983 276° West 183 211 2,500 -500 Descending Los Angeles Center
Wed 03:35:51 PM 36.0739 -115.1467 270° West 160 184 2,100 -387 Descending Los Angeles Center
Wed 03:37:00 PM 36.0667 -115.1500 270° West  Level FlightAware Approximate

Login

Don't have an account? Register now (free) for customized features, flight alerts, and more!